Time;durP1;ratioP1;P1;durP2;ratioP2;P2;SDS_P1;SDS_P2;PMS_P1;PMS_P2;Temp;Humidity;BMP_temperature;BMP_pressure;BME280_temperature;BME280_humidity;BME280_pressure;Samples;Min_cycle;Max_cycle;Signal;HPM_P1;HPM_P2
2022/03/14 00:02:05;;;;;;;11.35;6.75;;;9.10;99.90;;;;;;5120932;27;20043;-66
2022/03/14 00:04:31;;;;;;;10.05;6.78;;;9.00;99.90;;;;;;5127764;28;20079;-66
2022/03/14 00:06:57;;;;;;;12.38;6.43;;;9.00;99.90;;;;;;5112006;28;20042;-66
2022/03/14 00:09:23;;;;;;;9.98;6.47;;;9.00;99.90;;;;;;5109693;28;20043;-66
2022/03/14 00:11:51;;;;;;;10.18;6.18;;;9.00;99.90;;;;;;5111045;28;20043;-66
2022/03/14 00:14:17;;;;;;;11.13;5.88;;;9.00;99.90;;;;;;5110513;28;20567;-67
2022/03/14 00:16:46;;;;;;;10.18;6.72;;;9.00;99.90;;;;;;5126114;27;20126;-66
2022/03/14 00:19:13;;;;;;;10.48;6.95;;;9.10;99.90;;;;;;5128961;28;20051;-66
2022/03/14 00:21:39;;;;;;;11.65;7.63;;;9.10;99.90;;;;;;5108270;28;20053;-66
2022/03/14 00:24:07;;;;;;;13.88;7.28;;;9.10;99.90;;;;;;5110576;28;20039;-66
2022/03/14 00:26:34;;;;;;;12.13;6.80;;;9.10;99.90;;;;;;5128353;28;20059;-66
2022/03/14 00:28:59;;;;;;;13.38;6.93;;;9.10;99.90;;;;;;5113389;27;20115;-66
2022/03/14 00:31:25;;;;;;;13.02;7.70;;;9.20;99.90;;;;;;5133321;27;20096;-66
2022/03/14 00:33:51;;;;;;;14.30;8.70;;;9.20;99.90;;;;;;5115270;27;20126;-66
2022/03/14 00:36:19;;;;;;;14.23;8.45;;;9.20;99.90;;;;;;5113981;27;20080;-66
2022/03/14 00:38:44;;;;;;;14.57;8.15;;;9.20;99.90;;;;;;5111678;27;20560;-66
2022/03/14 00:41:12;;;;;;;15.93;9.25;;;9.20;99.90;;;;;;5114168;27;20072;-66
2022/03/14 00:43:38;;;;;;;15.55;8.82;;;9.20;99.90;;;;;;5112220;27;20042;-66
2022/03/14 00:46:04;;;;;;;12.68;8.27;;;9.20;99.90;;;;;;5113957;27;20042;-66
2022/03/14 00:48:34;;;;;;;12.73;7.60;;;9.30;99.90;;;;;;5133213;27;20378;-66
2022/03/14 00:51:01;;;;;;;11.00;7.07;;;9.20;99.90;;;;;;5111872;27;20115;-66
2022/03/14 00:53:27;;;;;;;11.05;7.18;;;9.30;99.90;;;;;;5130909;27;20579;-66
2022/03/14 00:55:52;;;;;;;10.80;7.40;;;9.30;99.90;;;;;;5132967;27;20287;-66
2022/03/14 00:58:18;;;;;;;10.68;6.53;;;9.30;99.90;;;;;;5125436;27;20122;-66
2022/03/14 01:00:44;;;;;;;10.85;6.90;;;9.30;99.90;;;;;;5111797;27;20042;-67
2022/03/14 01:03:09;;;;;;;12.57;6.43;;;9.30;99.90;;;;;;5131744;27;20031;-66
2022/03/14 01:05:35;;;;;;;10.55;7.03;;;9.30;99.90;;;;;;5113766;27;20139;-66
2022/03/14 01:08:00;;;;;;;10.55;6.53;;;9.30;99.90;;;;;;5114049;27;20038;-66
2022/03/14 01:10:26;;;;;;;10.38;6.75;;;9.30;99.90;;;;;;5113428;27;20085;-66
2022/03/14 01:12:52;;;;;;;10.60;6.55;;;9.30;99.90;;;;;;5129711;27;20092;-66
2022/03/14 01:15:18;;;;;;;11.70;6.82;;;9.30;99.90;;;;;;5109536;27;20058;-67
2022/03/14 01:17:44;;;;;;;9.57;6.63;;;9.30;99.90;;;;;;5113951;27;20394;-67
2022/03/14 01:20:10;;;;;;;12.55;7.00;;;9.30;99.90;;;;;;5130271;27;20062;-66
2022/03/14 01:22:36;;;;;;;10.48;6.68;;;9.30;99.90;;;;;;5131387;27;20046;-66
2022/03/14 01:25:03;;;;;;;11.93;6.80;;;9.30;99.90;;;;;;5113719;27;20118;-66
2022/03/14 01:27:28;;;;;;;12.80;7.40;;;9.30;99.90;;;;;;5112910;27;20640;-66
2022/03/14 01:29:55;;;;;;;10.98;7.07;;;9.30;99.90;;;;;;5113751;27;20069;-66
2022/03/14 01:32:21;;;;;;;12.10;7.35;;;9.30;99.90;;;;;;5112535;27;20087;-66
2022/03/14 01:34:46;;;;;;;10.57;7.05;;;9.30;99.90;;;;;;5132738;27;20050;-66
2022/03/14 01:37:12;;;;;;;12.18;7.20;;;9.20;99.90;;;;;;5113324;27;20118;-66
2022/03/14 01:39:38;;;;;;;10.38;6.95;;;9.20;99.90;;;;;;5112446;27;20047;-66
2022/03/14 01:42:03;;;;;;;11.90;6.88;;;9.20;99.90;;;;;;5124193;27;20031;-66
2022/03/14 01:44:30;;;;;;;12.65;7.35;;;9.10;99.90;;;;;;5113340;27;20179;-66
2022/03/14 01:46:56;;;;;;;10.13;6.40;;;9.10;99.90;;;;;;5127866;27;20088;-66
2022/03/14 01:49:22;;;;;;;10.43;6.57;;;9.10;99.90;;;;;;5111952;27;20427;-66
2022/03/14 01:51:49;;;;;;;11.88;6.55;;;9.10;99.90;;;;;;5110538;27;20378;-66
2022/03/14 01:54:14;;;;;;;11.23;6.60;;;9.10;99.90;;;;;;5112526;27;20054;-66
2022/03/14 01:56:40;;;;;;;10.20;6.50;;;9.10;99.90;;;;;;5130261;27;20050;-66
2022/03/14 01:59:07;;;;;;;10.75;6.80;;;9.10;99.90;;;;;;5106355;27;20035;-66
2022/03/14 02:01:33;;;;;;;12.52;7.65;;;9.10;99.90;;;;;;5123947;27;20067;-66
2022/03/14 02:03:59;;;;;;;11.55;7.50;;;9.20;99.90;;;;;;5107268;27;20039;-66
2022/03/14 02:06:27;;;;;;;10.65;6.88;;;9.10;99.90;;;;;;5111576;27;20095;-66
2022/03/14 02:08:53;;;;;;;10.15;6.40;;;9.10;99.90;;;;;;5113728;27;20051;-66
2022/03/14 02:11:19;;;;;;;10.65;6.65;;;9.10;99.90;;;;;;5100010;27;20047;-66
2022/03/14 02:13:44;;;;;;;10.73;6.50;;;9.10;99.90;;;;;;5112297;27;20393;-67
2022/03/14 02:16:10;;;;;;;10.40;7.18;;;9.10;99.90;;;;;;5112144;27;20382;-66
2022/03/14 02:18:35;;;;;;;11.13;6.43;;;9.10;99.90;;;;;;5129314;27;20100;-66
2022/03/14 02:21:01;;;;;;;10.48;6.57;;;9.10;99.90;;;;;;5127051;27;20457;-66
2022/03/14 02:23:27;;;;;;;9.32;6.30;;;9.10;99.90;;;;;;5113062;27;20042;-66
2022/03/14 02:25:55;;;;;;;11.20;6.97;;;9.10;99.90;;;;;;5102829;27;20176;-66
2022/03/14 02:28:22;;;;;;;12.02;6.53;;;9.10;99.90;;;;;;5112310;27;20049;-66
2022/03/14 02:30:49;;;;;;;10.07;6.20;;;9.10;99.90;;;;;;5112150;27;20039;-66
2022/03/14 02:33:15;;;;;;;10.55;6.65;;;9.10;99.90;;;;;;5127637;27;20039;-66
2022/03/14 02:35:42;;;;;;;12.27;6.18;;;9.10;99.90;;;;;;5111205;27;20039;-66
2022/03/14 02:38:12;;;;;;;10.88;6.05;;;9.10;99.90;;;;;;5130261;27;20034;-66
2022/03/14 02:40:41;;;;;;;11.07;6.20;;;9.10;99.90;;;;;;5110175;27;20039;-66
2022/03/14 02:43:07;;;;;;;10.82;6.60;;;9.10;99.90;;;;;;5111658;27;20043;-67
2022/03/14 02:45:33;;;;;;;10.40;6.53;;;9.20;99.90;;;;;;5111920;27;20417;-66
2022/03/14 02:47:59;;;;;;;9.35;6.10;;;9.10;99.90;;;;;;5129994;27;20031;-66
2022/03/14 02:50:26;;;;;;;11.25;5.88;;;9.10;99.90;;;;;;5129840;27;20050;-66
2022/03/14 02:52:52;;;;;;;11.13;6.65;;;9.20;99.90;;;;;;5111893;27;20405;-66
2022/03/14 02:55:21;;;;;;;13.20;6.45;;;9.20;99.90;;;;;;5126341;27;20046;-66
2022/03/14 02:57:46;;;;;;;9.63;5.93;;;9.20;99.90;;;;;;5119302;27;20026;-66
2022/03/14 03:00:13;;;;;;;10.15;5.53;;;9.30;99.90;;;;;;5111480;27;20039;-66
2022/03/14 03:02:40;;;;;;;8.73;5.47;;;9.30;99.90;;;;;;5125479;27;20067;-67
2022/03/14 03:05:06;;;;;;;9.07;5.80;;;9.30;99.90;;;;;;5128225;27;20046;-66
2022/03/14 03:07:32;;;;;;;7.97;5.28;;;9.30;99.90;;;;;;5110479;27;20039;-66
2022/03/14 03:09:57;;;;;;;8.65;5.35;;;9.30;99.90;;;;;;5129721;27;20389;-66
2022/03/14 03:12:25;;;;;;;8.43;5.32;;;9.30;99.90;;;;;;5110872;27;20047;-66
2022/03/14 03:14:51;;;;;;;7.30;4.85;;;9.30;99.90;;;;;;5102861;27;20039;-66
2022/03/14 03:17:17;;;;;;;9.35;5.30;;;9.30;99.90;;;;;;5129802;27;20066;-66
2022/03/14 03:19:42;;;;;;;8.98;5.13;;;9.30;99.90;;;;;;5110930;27;20035;-66
2022/03/14 03:22:08;;;;;;;9.13;5.03;;;9.30;99.90;;;;;;5107568;27;20055;-66
2022/03/14 03:24:33;;;;;;;10.35;5.60;;;9.30;99.90;;;;;;5107912;27;20035;-66
2022/03/14 03:26:59;;;;;;;11.75;6.00;;;9.30;99.90;;;;;;5103022;27;20146;-66
2022/03/14 03:29:25;;;;;;;9.10;5.53;;;9.30;99.90;;;;;;5111348;27;20466;-66
2022/03/14 03:31:51;;;;;;;11.23;5.43;;;9.20;99.90;;;;;;5108325;27;20043;-66
2022/03/14 03:34:17;;;;;;;9.55;5.65;;;9.20;99.90;;;;;;5097840;27;20059;-66
2022/03/14 03:36:42;;;;;;;7.88;5.47;;;9.20;99.90;;;;;;5112774;27;20473;-66
2022/03/14 03:39:08;;;;;;;8.90;5.70;;;9.20;99.90;;;;;;5128661;27;20039;-66
2022/03/14 03:41:33;;;;;;;9.77;5.10;;;9.20;99.90;;;;;;5111140;27;20047;-66
2022/03/14 03:43:59;;;;;;;9.45;5.75;;;9.20;99.90;;;;;;5111746;28;21453;-67
2022/03/14 03:46:24;;;;;;;9.68;5.60;;;9.10;99.90;;;;;;5111844;28;20046;-66
2022/03/14 03:48:50;;;;;;;9.02;5.72;;;9.10;99.90;;;;;;5110964;28;20041;-67
2022/03/14 03:51:16;;;;;;;13.15;6.40;;;9.00;99.90;;;;;;5111625;28;20043;-67
2022/03/14 03:53:41;;;;;;;9.57;5.93;;;9.00;99.90;;;;;;5130465;28;20034;-66
2022/03/14 03:56:07;;;;;;;10.68;6.07;;;8.90;99.90;;;;;;5109040;28;20586;-66
2022/03/14 03:58:32;;;;;;;10.05;6.35;;;8.90;99.90;;;;;;5111255;28;20100;-66
2022/03/14 04:00:58;;;;;;;11.05;6.35;;;8.80;99.90;;;;;;5110986;28;20051;-66
2022/03/14 04:03:23;;;;;;;10.75;5.88;;;8.80;99.90;;;;;;5113065;27;20046;-67
2022/03/14 04:05:49;;;;;;;9.48;5.88;;;8.70;99.90;;;;;;5116793;27;20473;-66
2022/03/14 04:08:15;;;;;;;12.93;6.72;;;8.70;99.90;;;;;;5111818;28;20475;-66
2022/03/14 04:10:43;;;;;;;10.38;6.43;;;8.70;99.90;;;;;;5115129;27;20046;-67
2022/03/14 04:13:09;;;;;;;10.25;6.47;;;8.60;99.90;;;;;;5116758;27;20043;-66
2022/03/14 04:15:46;;;;;;;10.38;6.45;;;8.60;99.90;;;;;;5106263;27;20159;-66
2022/03/14 04:18:11;;;;;;;12.93;6.80;;;8.60;99.90;;;;;;5111446;27;20035;-66
2022/03/14 04:20:37;;;;;;;13.10;7.10;;;8.60;99.90;;;;;;5133352;27;20450;-66
2022/03/14 04:23:03;;;;;;;11.55;6.07;;;8.60;99.90;;;;;;5114461;27;20039;-66
2022/03/14 04:25:28;;;;;;;13.48;6.43;;;8.70;99.90;;;;;;5114346;27;20027;-66
2022/03/14 04:27:54;;;;;;;10.15;6.13;;;8.70;99.90;;;;;;5133833;27;20031;-66
2022/03/14 04:30:20;;;;;;;11.15;6.43;;;8.70;99.90;;;;;;5112351;27;20038;-66
2022/03/14 04:32:45;;;;;;;12.10;6.45;;;8.70;99.90;;;;;;5113857;27;20054;-67
2022/03/14 04:35:11;;;;;;;8.70;5.55;;;8.70;99.90;;;;;;5115559;27;20438;-66
2022/03/14 04:37:37;;;;;;;10.57;5.95;;;8.70;99.90;;;;;;5116412;27;20051;-66
2022/03/14 04:40:03;;;;;;;11.52;6.13;;;8.80;99.90;;;;;;5128943;27;20047;-66
2022/03/14 04:42:29;;;;;;;9.85;6.00;;;8.80;99.90;;;;;;5127038;27;20070;-66
2022/03/14 04:44:55;;;;;;;9.55;5.80;;;8.80;99.90;;;;;;5115895;27;20070;-66
2022/03/14 04:47:20;;;;;;;9.52;5.80;;;8.80;99.90;;;;;;5106228;27;20096;-66
2022/03/14 04:49:46;;;;;;;9.82;5.95;;;8.80;99.90;;;;;;5112395;27;20052;-66
2022/03/14 04:52:12;;;;;;;10.48;5.75;;;8.80;99.90;;;;;;5103932;27;20042;-66
2022/03/14 04:54:38;;;;;;;10.45;6.25;;;8.80;99.90;;;;;;5124645;27;20436;-66
2022/03/14 04:57:04;;;;;;;11.00;5.68;;;8.80;99.90;;;;;;5128071;27;20042;-66
2022/03/14 04:59:29;;;;;;;7.93;5.38;;;8.80;99.90;;;;;;5133318;27;20043;-66
2022/03/14 05:01:55;;;;;;;10.60;5.88;;;8.80;99.90;;;;;;5114913;27;20047;-66
2022/03/14 05:04:20;;;;;;;12.30;6.15;;;8.90;99.90;;;;;;5133138;27;20053;-66
2022/03/14 05:06:46;;;;;;;9.27;5.80;;;8.90;99.90;;;;;;5132888;27;20335;-66
2022/03/14 05:09:11;;;;;;;11.15;5.97;;;8.90;99.90;;;;;;5126168;27;20041;-66
2022/03/14 05:11:40;;;;;;;10.55;5.85;;;8.80;99.90;;;;;;5114516;27;20421;-66
2022/03/14 05:14:08;;;;;;;12.82;7.30;;;8.90;99.90;;;;;;5114082;27;20084;-66
2022/03/14 05:16:34;;;;;;;10.35;5.97;;;8.90;99.90;;;;;;5111575;27;20043;-66
2022/03/14 05:19:00;;;;;;;9.75;5.82;;;8.90;99.90;;;;;;5114668;27;20031;-66
2022/03/14 05:21:26;;;;;;;14.35;6.05;;;8.90;99.90;;;;;;5131621;27;20397;-66
2022/03/14 05:23:52;;;;;;;13.20;6.25;;;8.90;99.90;;;;;;5132693;27;20066;-67
2022/03/14 05:26:18;;;;;;;12.10;6.53;;;8.90;99.90;;;;;;5110520;27;20169;-66
2022/03/14 05:28:43;;;;;;;11.68;6.22;;;8.90;99.90;;;;;;5127121;27;20130;-66
2022/03/14 05:31:09;;;;;;;13.15;6.50;;;8.90;99.90;;;;;;5130013;27;20146;-66
2022/03/14 05:33:34;;;;;;;12.75;6.15;;;8.90;99.90;;;;;;5114701;27;20145;-67
2022/03/14 05:36:01;;;;;;;14.05;7.15;;;8.90;99.90;;;;;;5132744;27;20070;-66
2022/03/14 05:38:28;;;;;;;12.25;6.75;;;8.80;99.90;;;;;;5114078;27;20055;-67
2022/03/14 05:40:54;;;;;;;10.52;6.43;;;8.80;99.90;;;;;;5130844;27;20039;-66
2022/03/14 05:43:21;;;;;;;12.20;6.65;;;8.80;99.90;;;;;;5133256;27;20394;-66
2022/03/14 05:45:46;;;;;;;12.23;6.93;;;8.80;99.90;;;;;;5101790;27;20100;-67
2022/03/14 05:48:12;;;;;;;11.93;7.15;;;8.90;99.90;;;;;;5132680;27;20035;-67
2022/03/14 05:50:37;;;;;;;14.60;7.57;;;8.80;99.90;;;;;;5112033;27;20160;-67
2022/03/14 05:53:03;;;;;;;12.75;7.72;;;8.80;99.90;;;;;;5130785;27;20035;-67
2022/03/14 05:55:29;;;;;;;14.77;7.95;;;8.80;99.90;;;;;;5110496;27;20051;-67
2022/03/14 05:57:54;;;;;;;13.40;8.00;;;8.80;99.90;;;;;;5110385;27;20050;-67
2022/03/14 06:00:23;;;;;;;14.90;7.68;;;8.80;99.90;;;;;;5112944;27;20513;-67
2022/03/14 06:02:52;;;;;;;14.23;8.05;;;8.80;99.90;;;;;;5131981;27;20489;-68
2022/03/14 06:05:19;;;;;;;13.77;8.15;;;8.80;99.90;;;;;;5131493;27;20039;-67
2022/03/14 06:07:45;;;;;;;13.65;7.78;;;8.80;99.90;;;;;;5114174;27;20046;-67
2022/03/14 06:10:13;;;;;;;14.68;8.10;;;8.80;99.90;;;;;;5112131;27;20482;-68
2022/03/14 06:12:39;;;;;;;16.10;8.40;;;8.80;99.90;;;;;;5110494;27;20066;-67
2022/03/14 06:15:09;;;;;;;16.52;7.97;;;8.80;99.90;;;;;;5112603;27;20074;-67
2022/03/14 06:17:35;;;;;;;18.52;8.70;;;8.80;99.90;;;;;;5131327;27;20484;-67
2022/03/14 06:20:01;;;;;;;15.13;8.32;;;8.80;99.90;;;;;;5111999;27;20031;-67
2022/03/14 06:22:26;;;;;;;15.90;8.18;;;8.80;99.90;;;;;;5114091;27;20050;-67
2022/03/14 06:24:53;;;;;;;17.63;9.35;;;8.80;99.90;;;;;;5113535;27;20581;-67
2022/03/14 06:27:23;;;;;;;17.13;8.65;;;8.80;99.90;;;;;;5109363;27;20039;-67
2022/03/14 06:29:48;;;;;;;16.02;8.55;;;8.80;99.90;;;;;;5110597;27;20062;-68
2022/03/14 06:32:15;;;;;;;18.05;9.50;;;8.80;99.90;;;;;;5130740;27;20063;-67
2022/03/14 06:34:41;;;;;;;16.65;9.20;;;8.80;99.90;;;;;;5111970;27;20137;-67
2022/03/14 06:37:07;;;;;;;22.10;9.02;;;8.80;99.90;;;;;;5113034;27;20039;-67
2022/03/14 06:39:35;;;;;;;22.52;10.68;;;8.80;99.90;;;;;;5112343;27;20046;-68
2022/03/14 06:42:09;;;;;;;16.52;9.15;;;8.80;99.90;;;;;;5113026;27;20486;-67
2022/03/14 06:44:38;;;;;;;19.05;9.50;;;8.90;99.90;;;;;;5105568;27;20071;-67
2022/03/14 06:47:04;;;;;;;16.08;8.88;;;8.90;99.90;;;;;;5129184;27;20047;-67
2022/03/14 06:49:30;;;;;;;18.38;10.20;;;8.90;99.90;;;;;;5111548;27;20035;-67
2022/03/14 06:51:56;;;;;;;18.33;10.02;;;8.90;99.90;;;;;;5111212;27;20100;-67
2022/03/14 06:54:22;;;;;;;19.85;10.10;;;8.90;99.90;;;;;;5127557;27;20131;-67
2022/03/14 06:56:48;;;;;;;19.63;9.77;;;9.00;99.90;;;;;;5114156;27;20038;-67
2022/03/14 06:59:14;;;;;;;16.10;9.73;;;9.00;99.90;;;;;;5112300;27;20031;-67
2022/03/14 07:01:40;;;;;;;19.30;10.27;;;9.00;99.90;;;;;;5129024;27;20459;-67
2022/03/14 07:04:06;;;;;;;20.65;10.50;;;9.00;99.90;;;;;;5112267;27;20031;-67
2022/03/14 07:06:31;;;;;;;23.95;10.60;;;9.00;99.90;;;;;;5111770;27;20042;-67
2022/03/14 07:08:57;;;;;;;20.55;10.27;;;9.00;99.90;;;;;;5111710;27;20069;-67
2022/03/14 07:11:22;;;;;;;22.63;10.60;;;9.00;99.90;;;;;;5112023;28;20053;-67
2022/03/14 07:13:48;;;;;;;20.10;10.55;;;9.00;99.90;;;;;;5105477;27;20050;-67
2022/03/14 07:16:13;;;;;;;23.10;10.77;;;9.10;99.90;;;;;;5128095;27;20412;-68
2022/03/14 07:18:39;;;;;;;21.25;10.30;;;9.10;99.90;;;;;;5112374;27;20060;-67
2022/03/14 07:21:04;;;;;;;21.27;10.95;;;9.10;99.90;;;;;;5111692;27;20043;-68
2022/03/14 07:23:30;;;;;;;20.90;10.93;;;9.10;99.90;;;;;;5112519;27;20473;-67
2022/03/14 07:25:55;;;;;;;22.55;10.60;;;9.20;99.90;;;;;;5109885;27;20023;-67
2022/03/14 07:28:21;;;;;;;22.33;10.75;;;9.10;99.90;;;;;;5129434;27;20454;-67
2022/03/14 07:30:46;;;;;;;24.67;10.77;;;9.10;99.90;;;;;;5111399;27;20053;-68
2022/03/14 07:33:12;;;;;;;24.05;11.18;;;9.20;99.90;;;;;;5112177;28;20128;-68
2022/03/14 07:35:38;;;;;;;25.02;11.65;;;9.20;99.90;;;;;;5108152;27;20047;-67
2022/03/14 07:38:04;;;;;;;22.58;11.63;;;9.30;99.90;;;;;;5109383;28;20043;-67
2022/03/14 07:40:30;;;;;;;24.00;11.80;;;9.20;99.90;;;;;;5110543;27;20043;-66
2022/03/14 07:42:58;;;;;;;27.50;11.73;;;9.30;99.90;;;;;;5109691;27;20053;-66
2022/03/14 07:45:24;;;;;;;26.50;12.18;;;9.30;99.90;;;;;;5129226;27;20039;-66
2022/03/14 07:47:50;;;;;;;24.13;11.43;;;9.40;99.90;;;;;;5109299;27;20466;-66
2022/03/14 07:50:17;;;;;;;23.30;11.85;;;9.40;99.90;;;;;;5110891;27;20070;-67
2022/03/14 07:52:43;;;;;;;24.55;11.95;;;9.40;99.90;;;;;;5112999;28;20050;-66
2022/03/14 07:55:10;;;;;;;23.58;11.63;;;9.40;99.90;;;;;;5112525;28;20408;-66
2022/03/14 07:57:36;;;;;;;25.77;12.18;;;9.40;99.90;;;;;;5126377;28;20074;-66
2022/03/14 08:00:04;;;;;;;24.13;12.23;;;9.40;99.90;;;;;;5110801;28;20039;-67
2022/03/14 08:02:29;;;;;;;27.60;12.05;;;9.40;99.90;;;;;;5106269;28;20043;-66
2022/03/14 08:04:55;;;;;;;28.40;13.32;;;9.40;99.90;;;;;;5111726;28;20404;-66
2022/03/14 08:07:20;;;;;;;29.10;13.50;;;9.30;99.90;;;;;;5130517;28;20088;-67
2022/03/14 08:09:48;;;;;;;32.80;14.95;;;9.30;99.90;;;;;;5129832;28;20414;-67
2022/03/14 08:12:14;;;;;;;33.33;16.05;;;9.30;99.90;;;;;;5111867;28;20035;-69
2022/03/14 08:14:39;;;;;;;45.42;20.45;;;9.30;99.90;;;;;;5111367;28;20518;-67
2022/03/14 08:17:05;;;;;;;48.15;21.20;;;9.20;99.90;;;;;;5127451;27;20045;-68
2022/03/14 08:19:30;;;;;;;69.20;28.52;;;9.10;99.90;;;;;;5111509;28;20142;-66
2022/03/14 08:21:57;;;;;;;69.20;26.70;;;9.10;99.90;;;;;;5110146;28;20074;-66
2022/03/14 08:24:23;;;;;;;71.53;29.90;;;9.00;99.90;;;;;;5110651;28;20035;-66
2022/03/14 08:26:48;;;;;;;70.82;27.33;;;9.00;99.90;;;;;;5121715;28;20434;-67
2022/03/14 08:29:14;;;;;;;77.15;28.52;;;9.00;99.90;;;;;;5093081;28;20073;-67
2022/03/14 08:31:39;;;;;;;57.97;21.67;;;8.90;99.90;;;;;;5112918;28;20053;-66
2022/03/14 08:34:06;;;;;;;73.80;28.25;;;8.80;99.90;;;;;;5111751;28;20051;-67
2022/03/14 08:36:33;;;;;;;82.50;30.85;;;8.90;99.90;;;;;;5124168;28;20121;-66
2022/03/14 08:38:58;;;;;;;72.95;27.83;;;8.90;99.90;;;;;;5130238;28;20043;-68
2022/03/14 08:41:24;;;;;;;70.93;24.98;;;8.90;99.90;;;;;;5108351;28;20301;-67
2022/03/14 08:43:49;;;;;;;66.55;24.42;;;8.90;99.90;;;;;;5114431;28;20043;-68
2022/03/14 08:46:15;;;;;;;67.88;26.55;;;8.90;99.90;;;;;;5110984;28;20043;-66
2022/03/14 08:48:41;;;;;;;66.18;23.75;;;8.70;99.90;;;;;;5100218;28;20104;-67
2022/03/14 08:51:07;;;;;;;60.35;22.55;;;8.50;99.90;;;;;;5128151;27;20054;-67
2022/03/14 08:53:33;;;;;;;48.53;18.27;;;8.70;99.90;;;;;;5114334;27;20478;-67
2022/03/14 08:56:02;;;;;;;54.33;20.05;;;8.70;99.90;;;;;;5133118;27;20425;-68
2022/03/14 08:58:29;;;;;;;64.93;25.33;;;8.60;99.90;;;;;;5109263;27;20074;-68
2022/03/14 09:00:55;;;;;;;61.92;20.90;;;8.50;99.90;;;;;;5116069;27;20045;-68
2022/03/14 09:03:21;;;;;;;96.25;33.00;;;8.50;99.90;;;;;;5115429;27;20043;-65
2022/03/14 09:05:47;;;;;;;101.63;31.10;;;8.60;99.90;;;;;;5115081;27;20386;-70
2022/03/14 09:08:12;;;;;;;108.32;33.88;;;8.40;99.90;;;;;;5115417;27;20035;-68
2022/03/14 09:10:39;;;;;;;93.07;29.88;;;8.50;99.90;;;;;;5115198;27;20575;-67
2022/03/14 09:13:05;;;;;;;93.07;32.17;;;8.50;99.90;;;;;;5115355;27;20121;-66
2022/03/14 09:15:30;;;;;;;91.03;29.42;;;8.50;99.90;;;;;;5111836;27;20122;-67
2022/03/14 09:17:59;;;;;;;90.82;30.10;;;8.40;99.90;;;;;;5114820;27;20050;-69
2022/03/14 09:20:26;;;;;;;94.47;28.83;;;8.40;99.90;;;;;;5133244;27;20046;-68
2022/03/14 09:22:53;;;;;;;83.20;25.88;;;8.60;99.90;;;;;;5114124;27;20069;-67
2022/03/14 09:25:20;;;;;;;80.40;27.23;;;8.40;99.90;;;;;;5113113;27;20039;-68
2022/03/14 09:27:48;;;;;;;72.10;22.75;;;8.50;99.90;;;;;;5115855;27;20512;-67
2022/03/14 09:30:14;;;;;;;69.90;24.20;;;8.70;99.90;;;;;;5114740;27;20426;-66
2022/03/14 09:32:41;;;;;;;72.10;25.98;;;8.80;99.90;;;;;;5113731;27;20046;-67
2022/03/14 09:35:08;;;;;;;74.63;23.48;;;8.60;99.90;;;;;;5115441;27;20047;-66
2022/03/14 09:37:35;;;;;;;63.50;23.05;;;8.80;99.90;;;;;;5133988;27;20085;-67
2022/03/14 09:40:05;;;;;;;62.08;21.08;;;8.70;99.90;;;;;;5114267;27;20039;-67
2022/03/14 09:42:33;;;;;;;62.30;21.35;;;9.00;99.90;;;;;;5115037;27;20431;-67
2022/03/14 09:45:00;;;;;;;48.28;18.45;;;9.00;99.90;;;;;;5114491;27;20122;-67
2022/03/14 09:47:27;;;;;;;59.42;17.52;;;9.00;99.90;;;;;;5111386;27;20035;-67
2022/03/14 09:49:59;;;;;;;57.10;19.67;;;8.90;99.90;;;;;;5114031;27;20078;-66
2022/03/14 09:52:25;;;;;;;61.25;17.90;;;9.10;99.90;;;;;;5108520;27;20088;-66
2022/03/14 09:54:51;;;;;;;55.88;17.10;;;9.00;99.90;;;;;;5114690;27;20122;-66
2022/03/14 09:57:18;;;;;;;54.47;17.23;;;9.10;99.90;;;;;;5114229;27;20509;-66
2022/03/14 09:59:44;;;;;;;49.33;15.57;;;9.10;99.90;;;;;;5110005;27;20074;-66
2022/03/14 10:02:12;;;;;;;46.70;13.70;;;9.20;99.90;;;;;;5131497;27;20062;-65
2022/03/14 10:04:38;;;;;;;45.80;13.88;;;9.10;99.90;;;;;;5114213;27;20043;-66
2022/03/14 10:07:05;;;;;;;44.67;14.07;;;9.20;99.90;;;;;;5114041;27;20428;-67
2022/03/14 10:09:31;;;;;;;49.30;15.27;;;9.20;99.90;;;;;;5113204;27;20038;-68
2022/03/14 10:11:57;;;;;;;45.85;14.10;;;9.20;99.90;;;;;;5112163;27;20103;-68
2022/03/14 10:14:23;;;;;;;39.60;14.07;;;9.20;99.90;;;;;;5108608;27;20457;-68
2022/03/14 10:16:51;;;;;;;45.38;14.57;;;9.30;99.90;;;;;;5112309;27;20034;-67
2022/03/14 10:19:20;;;;;;;43.70;13.57;;;9.30;99.90;;;;;;5112473;27;20049;-68
2022/03/14 10:21:46;;;;;;;49.10;13.45;;;9.30;99.90;;;;;;5111927;27;20071;-68
2022/03/14 10:24:13;;;;;;;41.72;12.13;;;9.40;99.90;;;;;;5091547;27;20031;-67
2022/03/14 10:26:44;;;;;;;33.15;10.70;;;9.40;99.90;;;;;;5112067;27;20393;-68
2022/03/14 10:29:12;;;;;;;42.45;10.10;;;9.40;99.90;;;;;;5113752;27;20090;-66
2022/03/14 10:31:47;;;;;;;33.40;9.55;;;9.40;99.90;;;;;;5132542;27;20050;-66
2022/03/14 10:34:15;;;;;;;35.58;9.75;;;9.40;99.90;;;;;;5131411;27;20050;-67
2022/03/14 10:36:48;;;;;;;33.85;10.27;;;9.50;99.90;;;;;;5113352;27;20039;-67
2022/03/14 10:39:18;;;;;;;35.13;9.70;;;9.50;99.90;;;;;;5112366;27;20039;-67
2022/03/14 10:42:02;;;;;;;34.80;9.75;;;9.60;99.90;;;;;;5111810;27;20050;-68
2022/03/14 10:44:29;;;;;;;35.45;9.48;;;9.60;99.90;;;;;;5111399;27;20127;-68
2022/03/14 10:46:58;;;;;;;36.17;9.05;;;9.80;99.90;;;;;;5131608;27;20443;-67
2022/03/14 10:49:32;;;;;;;36.13;9.80;;;9.90;99.90;;;;;;5111604;27;20100;-67
2022/03/14 10:52:00;;;;;;;41.05;10.25;;;10.00;99.90;;;;;;5131682;27;20536;-67
2022/03/14 10:54:27;;;;;;;32.42;10.13;;;9.90;99.90;;;;;;5110608;27;20447;-66
2022/03/14 10:57:05;;;;;;;32.65;9.57;;;10.00;99.90;;;;;;5109443;27;20050;-68
2022/03/14 10:59:42;;;;;;;33.30;9.25;;;10.10;99.90;;;;;;5129811;27;20046;-68
2022/03/14 11:02:21;;;;;;;38.47;11.43;;;10.20;99.90;;;;;;5108703;27;20505;-68
2022/03/14 11:04:52;;;;;;;33.25;10.23;;;10.20;99.90;;;;;;5110643;27;20122;-68
2022/03/14 11:07:19;;;;;;;35.45;12.10;;;10.30;99.90;;;;;;5113256;27;20496;-67
2022/03/14 11:09:50;;;;;;;43.00;12.25;;;10.40;99.90;;;;;;5106359;27;20553;-68
2022/03/14 11:12:21;;;;;;;39.22;13.20;;;10.40;99.90;;;;;;5104585;27;20057;-67
2022/03/14 11:14:55;;;;;;;44.22;14.48;;;10.50;99.90;;;;;;5111363;27;20035;-65
2022/03/14 11:17:27;;;;;;;36.00;14.52;;;10.50;99.90;;;;;;5106511;27;20107;-66
2022/03/14 11:19:54;;;;;;;39.63;12.65;;;10.50;99.90;;;;;;5112818;27;20256;-67
2022/03/14 11:22:23;;;;;;;51.65;17.38;;;10.50;99.90;;;;;;5112863;27;20088;-62
2022/03/14 11:24:50;;;;;;;45.67;17.17;;;10.40;99.90;;;;;;5112759;27;20098;-64
2022/03/14 11:27:26;;;;;;;50.05;18.25;;;10.40;99.90;;;;;;5113553;27;20073;-66
2022/03/14 11:29:54;;;;;;;57.55;20.17;;;10.40;99.90;;;;;;5113309;27;20035;-65
2022/03/14 11:32:21;;;;;;;57.80;21.65;;;10.40;99.90;;;;;;5125038;27;20099;-66
2022/03/14 11:34:49;;;;;;;62.58;22.40;;;10.40;99.90;;;;;;5113592;27;20288;-66
2022/03/14 11:37:16;;;;;;;62.58;24.02;;;10.50;99.90;;;;;;5107134;27;20406;-67
2022/03/14 11:39:43;;;;;;;60.03;24.42;;;10.50;99.90;;;;;;5131422;27;20097;-68
2022/03/14 11:42:11;;;;;;;55.20;24.48;;;10.40;99.90;;;;;;5111816;28;20082;-67
2022/03/14 11:44:38;;;;;;;66.50;28.15;;;10.50;99.90;;;;;;5113284;27;20081;-66
2022/03/14 11:47:04;;;;;;;64.78;26.90;;;10.50;99.90;;;;;;5128123;27;20076;-65
2022/03/14 11:49:31;;;;;;;74.18;30.52;;;10.60;99.90;;;;;;5102645;28;20091;-65
2022/03/14 11:52:19;;;;;;;73.93;29.55;;;10.70;99.90;;;;;;5112876;28;20393;-65
2022/03/14 11:54:58;;;;;;;77.55;29.35;;;10.70;99.90;;;;;;5113446;28;20035;-65
2022/03/14 11:57:41;;;;;;;74.65;30.42;;;10.80;99.90;;;;;;5112219;28;20043;-65
2022/03/14 12:00:21;;;;;;;70.70;30.17;;;10.90;99.90;;;;;;5130616;28;20068;-67
2022/03/14 12:03:07;;;;;;;80.38;30.88;;;11.00;99.90;;;;;;5112951;28;20125;-67
2022/03/14 12:05:33;;;;;;;73.28;26.92;;;11.00;99.90;;;;;;5130735;28;20039;-68
2022/03/14 12:08:12;;;;;;;72.72;27.73;;;11.10;99.90;;;;;;5130918;27;20080;-67
2022/03/14 12:10:37;;;;;;;64.43;27.58;;;11.10;99.90;;;;;;5130234;28;20035;-66
2022/03/14 12:13:03;;;;;;;82.10;32.85;;;11.20;99.90;;;;;;5109607;27;20048;-66
2022/03/14 12:15:43;;;;;;;74.47;30.67;;;11.40;99.90;;;;;;5128421;27;20031;-67
2022/03/14 12:18:24;;;;;;;73.80;28.48;;;11.50;99.90;;;;;;5112759;28;20039;-66
2022/03/14 12:21:03;;;;;;;76.82;28.05;;;11.60;99.90;;;;;;5100977;28;20088;-66
2022/03/14 12:23:34;;;;;;;65.25;27.67;;;11.70;99.90;;;;;;5111854;28;20081;-66
2022/03/14 12:26:23;;;;;;;62.10;22.77;;;11.80;99.90;;;;;;5115755;27;20035;-68
2022/03/14 12:28:49;;;;;;;74.68;26.90;;;11.90;99.90;;;;;;5099615;27;20126;-67
2022/03/14 12:31:17;;;;;;;68.72;25.75;;;11.90;99.90;;;;;;5116319;27;20114;-66
2022/03/14 12:33:45;;;;;;;58.97;20.35;;;12.00;99.90;;;;;;5115605;27;20126;-67
2022/03/14 12:36:21;;;;;;;52.55;15.77;;;12.10;99.90;;;;;;5116610;27;20046;-66
2022/03/14 12:39:05;;;;;;;58.33;22.98;;;12.10;99.90;;;;;;5116267;27;20043;-66
2022/03/14 12:41:31;;;;;;;61.13;19.92;;;12.00;99.90;;;;;;5082003;27;21951;-66
2022/03/14 12:43:57;;;;;;;65.88;25.25;;;12.10;99.90;;;;;;5134978;27;20031;-66